createdAt,value
2022-10-31T00:04:46.056Z,9.10
2022-10-31T00:09:48.207Z,9.33
2022-10-31T00:14:51.781Z,13.80
2022-10-31T00:19:53.875Z,11.63
2022-10-31T00:24:55.865Z,8.00
2022-10-31T00:29:59.340Z,10.33
2022-10-31T00:35:01.118Z,10.93
2022-10-31T00:40:03.577Z,7.63
2022-10-31T00:45:07.958Z,6.47
2022-10-31T00:50:10.295Z,10.07
2022-10-31T00:55:12.280Z,8.43
2022-10-31T01:00:16.736Z,7.27
2022-10-31T01:05:19.301Z,7.93
2022-10-31T01:10:21.528Z,7.37
2022-10-31T01:15:24.611Z,9.83
2022-10-31T01:20:26.876Z,7.87
2022-10-31T01:25:28.526Z,11.07
2022-10-31T01:30:33.074Z,6.93
2022-10-31T01:35:36.096Z,7.73
2022-10-31T01:40:38.112Z,6.00
2022-10-31T01:45:43.232Z,7.10
2022-10-31T01:50:49.174Z,6.70
2022-10-31T01:55:51.354Z,7.17
2022-10-31T02:01:01.826Z,7.63
2022-10-31T02:06:15.078Z,7.17
2022-10-31T02:11:17.177Z,8.63
2022-10-31T02:16:20.610Z,5.87
2022-10-31T02:21:28.705Z,9.27
2022-10-31T02:27:06.655Z,10.70
2022-10-31T02:32:16.127Z,7.33
2022-10-31T02:37:26.470Z,6.53
2022-10-31T02:42:35.042Z,8.20
2022-10-31T02:47:39.442Z,10.00
2022-10-31T02:52:41.598Z,8.87
2022-10-31T02:57:43.884Z,9.27
2022-10-31T03:03:03.337Z,10.50
2022-10-31T03:08:14.420Z,9.27
2022-10-31T03:13:25.300Z,6.40
2022-10-31T03:18:33.801Z,8.47
2022-10-31T03:23:37.631Z,7.73
2022-10-31T03:28:44.701Z,7.67
2022-10-31T03:33:51.485Z,9.97
2022-10-31T03:38:54.605Z,8.03
2022-10-31T03:44:00.770Z,8.60
2022-10-31T03:49:05.103Z,10.77
2022-10-31T03:54:13.268Z,10.40
2022-10-31T03:59:19.272Z,4.93
2022-10-31T04:04:22.857Z,6.60
2022-10-31T04:09:27.238Z,7.60
2022-10-31T04:14:32.098Z,8.33
2022-10-31T04:19:35.245Z,6.03
2022-10-31T04:24:39.827Z,12.63
2022-10-31T04:29:44.402Z,7.73
2022-10-31T04:34:50.230Z,7.80
2022-10-31T04:39:52.235Z,10.60
2022-10-31T04:44:54.225Z,9.47
2022-10-31T04:49:57.881Z,8.67
2022-10-31T04:54:59.936Z,7.10
2022-10-31T05:00:02.022Z,7.20
2022-10-31T05:05:06.265Z,6.17
2022-10-31T05:10:09.441Z,8.83
2022-10-31T05:15:11.055Z,12.63
2022-10-31T05:20:15.510Z,7.73
2022-10-31T05:25:18.856Z,7.73
2022-10-31T05:30:23.009Z,10.27
2022-10-31T05:35:28.437Z,9.13
2022-10-31T05:40:30.120Z,7.60
2022-10-31T05:45:32.324Z,7.37
2022-10-31T05:50:35.812Z,7.20
2022-10-31T05:55:38.023Z,9.30
2022-10-31T06:00:39.708Z,8.77
2022-10-31T06:05:42.652Z,13.63
2022-10-31T06:10:45.037Z,9.50
2022-10-31T06:15:47.026Z,7.50
2022-10-31T06:20:50.047Z,7.53
2022-10-31T06:25:52.199Z,10.57
2022-10-31T06:30:54.287Z,8.27
2022-10-31T06:35:57.953Z,11.43
2022-10-31T06:41:03.770Z,7.73
2022-10-31T06:46:06.277Z,11.50
2022-10-31T06:51:09.976Z,11.13
2022-10-31T06:56:12.049Z,12.40
2022-10-31T07:01:14.396Z,8.73
2022-10-31T07:06:17.842Z,11.83
2022-10-31T07:11:19.744Z,13.10
2022-10-31T07:16:21.774Z,19.40
2022-10-31T07:21:25.600Z,20.30
2022-10-31T07:26:27.229Z,25.50
2022-10-31T07:31:29.309Z,24.23
2022-10-31T07:36:32.724Z,33.93
2022-10-31T07:41:34.455Z,25.27
2022-10-31T07:46:36.044Z,22.00
2022-10-31T07:51:44.046Z,28.20
2022-10-31T07:56:48.883Z,20.17
2022-10-31T08:01:50.933Z,23.73
2022-10-31T08:06:54.305Z,23.73
2022-10-31T08:11:56.401Z,25.67
2022-10-31T08:16:58.523Z,24.93
2022-10-31T08:22:02.046Z,17.17
2022-10-31T08:27:04.173Z,20.73
2022-10-31T08:32:06.436Z,17.73
2022-10-31T08:37:09.749Z,23.23
2022-10-31T08:42:11.738Z,22.20
2022-10-31T08:47:13.810Z,19.80
2022-10-31T08:52:17.261Z,22.30
2022-10-31T08:57:19.266Z,24.00
2022-10-31T09:02:21.327Z,21.90
2022-10-31T09:07:24.882Z,19.30
2022-10-31T09:12:27.084Z,22.43
2022-10-31T09:17:29.317Z,22.73
2022-10-31T09:22:32.647Z,26.67
2022-10-31T09:27:34.649Z,20.13
2022-10-31T09:32:36.764Z,19.00
2022-10-31T09:37:40.150Z,21.17
2022-10-31T09:42:51.868Z,18.40
2022-10-31T09:48:07.841Z,22.37
2022-10-31T09:53:27.995Z,22.80
2022-10-31T09:58:35.395Z,19.63
2022-10-31T10:03:45.875Z,16.43
2022-10-31T10:08:49.325Z,19.47
2022-10-31T10:14:05.672Z,15.03
2022-10-31T10:19:31.866Z,16.13
2022-10-31T10:24:50.497Z,15.93
2022-10-31T10:29:59.802Z,16.70
2022-10-31T10:35:10.923Z,17.98
2022-10-31T10:40:18.281Z,22.25
2022-10-31T10:45:21.918Z,15.68
2022-10-31T10:50:28.751Z,16.02
2022-10-31T10:55:41.098Z,16.85
2022-10-31T11:00:44.971Z,20.05
2022-10-31T11:05:50.320Z,13.25
2022-10-31T11:11:00.463Z,15.55
2022-10-31T11:16:07.422Z,20.15
2022-10-31T11:21:29.580Z,15.18
2022-10-31T11:26:33.121Z,18.08
2022-10-31T11:31:36.864Z,18.40
2022-10-31T11:36:40.760Z,18.40
2022-10-31T11:41:45.052Z,15.63
2022-10-31T11:46:50.104Z,15.07
2022-10-31T11:51:55.616Z,18.23
2022-10-31T11:56:59.174Z,21.47
2022-10-31T12:02:02.684Z,17.27
2022-10-31T12:07:04.912Z,18.83
2022-10-31T12:12:43.432Z,16.30
2022-10-31T12:17:51.929Z,21.20
2022-10-31T12:23:03.179Z,21.60
2022-10-31T12:28:20.465Z,23.67
2022-10-31T12:33:43.273Z,23.83
2022-10-31T12:39:01.113Z,23.47
2022-10-31T12:44:10.226Z,27.17
2022-10-31T12:49:29.041Z,26.27
2022-10-31T12:54:47.075Z,26.87
2022-10-31T12:59:55.061Z,23.80
2022-10-31T13:05:00.308Z,24.77
2022-10-31T13:10:06.980Z,28.73
2022-10-31T13:15:17.703Z,30.27
2022-10-31T13:20:25.570Z,25.10
2022-10-31T13:25:33.854Z,35.67
2022-10-31T13:30:40.694Z,30.57
2022-10-31T13:35:51.367Z,34.50
2022-10-31T13:40:58.476Z,30.63
2022-10-31T13:46:01.970Z,35.97
2022-10-31T13:51:06.828Z,34.23
2022-10-31T13:56:28.118Z,35.87
2022-10-31T14:01:33.320Z,43.33
2022-10-31T14:06:44.328Z,38.03
2022-10-31T14:11:48.111Z,45.63
2022-10-31T14:16:58.013Z,41.80
2022-10-31T14:22:00.321Z,43.50
2022-10-31T14:27:04.321Z,41.50
2022-10-31T14:32:20.836Z,45.87
2022-10-31T14:37:49.236Z,47.83
2022-10-31T14:43:20.044Z,53.67
2022-10-31T14:48:44.996Z,47.50
2022-10-31T14:53:49.581Z,49.33
2022-10-31T14:58:52.432Z,48.03
2022-10-31T15:09:24.056Z,44.37
2022-10-31T15:14:27.987Z,51.63
2022-10-31T15:19:34.203Z,45.10
2022-10-31T15:24:38.964Z,48.10
2022-10-31T15:29:49.712Z,41.67
2022-10-31T15:34:53.912Z,47.33
2022-10-31T15:39:55.977Z,45.83
2022-10-31T15:45:02.508Z,51.53
2022-10-31T15:50:20.907Z,39.33
2022-10-31T15:55:25.697Z,39.30
2022-10-31T16:00:30.016Z,49.83
2022-10-31T16:05:39.050Z,53.93
2022-10-31T16:10:40.864Z,51.23
2022-10-31T16:15:55.808Z,63.73
2022-10-31T16:21:09.335Z,47.70
2022-10-31T16:26:17.993Z,52.67
2022-10-31T16:31:29.052Z,51.73
2022-10-31T16:36:35.757Z,48.83
2022-10-31T16:41:40.507Z,50.90
2022-10-31T16:46:42.543Z,50.63
2022-10-31T16:51:45.946Z,53.73
2022-10-31T16:56:48.055Z,63.83
2022-10-31T17:01:50.607Z,55.33
2022-10-31T17:06:54.247Z,69.37
2022-10-31T17:11:55.982Z,57.83
2022-10-31T17:16:57.896Z,63.90
2022-10-31T17:22:02.289Z,57.43
2022-10-31T17:27:04.562Z,50.67
2022-10-31T17:32:06.751Z,64.93
2022-10-31T17:37:11.197Z,80.70
2022-10-31T17:42:12.831Z,77.10
2022-10-31T17:47:14.823Z,60.10
2022-10-31T17:52:17.893Z,76.13
2022-10-31T17:57:19.932Z,52.33
2022-10-31T18:02:22.126Z,101.60
2022-10-31T18:07:25.622Z,108.30
2022-10-31T18:12:28.517Z,60.27
2022-10-31T18:17:30.435Z,45.00
2022-10-31T18:22:33.869Z,51.90
2022-10-31T18:27:36.514Z,54.77
2022-10-31T18:32:38.702Z,45.90
2022-10-31T18:37:42.550Z,82.20
2022-10-31T18:42:44.295Z,50.53
2022-10-31T18:47:46.000Z,46.60
2022-10-31T18:52:49.901Z,46.80
2022-10-31T18:57:51.511Z,50.17
2022-10-31T19:02:56.289Z,45.00
2022-10-31T19:07:59.617Z,46.53
2022-10-31T19:13:02.054Z,46.47
2022-10-31T19:18:04.786Z,48.67
2022-10-31T19:23:08.226Z,55.27
2022-10-31T19:28:10.622Z,56.63
2022-10-31T19:33:12.591Z,46.83
2022-10-31T19:38:16.093Z,54.57
2022-10-31T19:43:18.117Z,68.93
2022-10-31T19:48:20.213Z,48.20
2022-10-31T19:53:23.326Z,48.97
2022-10-31T19:58:26.111Z,43.53
2022-10-31T20:03:28.195Z,55.60
2022-10-31T20:08:33.593Z,49.40
2022-10-31T20:13:37.629Z,40.83
2022-10-31T20:18:40.485Z,53.53
2022-10-31T20:23:44.006Z,55.10
2022-10-31T20:28:46.987Z,50.50
2022-10-31T20:33:49.904Z,46.10
2022-10-31T20:38:53.593Z,52.83
2022-10-31T20:43:56.033Z,57.40
2022-10-31T20:48:58.259Z,57.53
2022-10-31T20:54:01.265Z,48.00
2022-10-31T20:59:03.149Z,52.90
2022-10-31T21:04:05.744Z,52.03
2022-10-31T21:09:09.387Z,52.30
2022-10-31T21:14:11.587Z,45.07
2022-10-31T21:19:13.386Z,47.37
2022-10-31T21:29:21.671Z,52.27
2022-10-31T21:34:23.755Z,51.50
2022-10-31T21:39:27.374Z,51.07
2022-10-31T21:44:29.421Z,56.77
2022-10-31T21:49:31.629Z,66.90
2022-10-31T21:54:35.036Z,51.07
2022-10-31T21:59:37.072Z,55.70
2022-10-31T22:04:39.073Z,52.73
2022-10-31T22:09:42.809Z,52.23
2022-10-31T22:14:44.872Z,47.23
2022-10-31T22:19:46.641Z,49.03
2022-10-31T22:24:50.126Z,46.33
2022-10-31T22:29:56.412Z,45.60
2022-10-31T22:34:58.888Z,47.53
2022-10-31T22:40:02.399Z,53.30
2022-10-31T22:45:04.669Z,44.03
2022-10-31T22:50:07.000Z,47.23
2022-10-31T22:55:10.808Z,39.87
2022-10-31T23:00:13.044Z,46.97
2022-10-31T23:05:14.819Z,46.17
2022-10-31T23:10:18.658Z,46.10
2022-10-31T23:15:20.289Z,42.77
2022-10-31T23:20:22.348Z,39.07
2022-10-31T23:25:25.843Z,45.13
2022-10-31T23:30:28.144Z,44.77
2022-10-31T23:35:30.375Z,44.07
2022-10-31T23:40:33.931Z,44.70
2022-10-31T23:45:36.099Z,42.43
2022-10-31T23:50:38.987Z,40.67
2022-10-31T23:55:42.459Z,43.87
